sensor_id;sensor_type;location;lat;lon;timestamp;P1;durP1;ratioP1;P2;durP2;ratioP2
16743;SDS011;71724;-33.900;151.182;2023-08-20T00:01:37;0.85;;;0.57;;
16743;SDS011;71724;-33.900;151.182;2023-08-20T00:04:04;0.35;;;0.35;;
16743;SDS011;71724;-33.900;151.182;2023-08-20T00:06:32;0.38;;;0.38;;
16743;SDS011;71724;-33.900;151.182;2023-08-20T00:09:00;5.47;;;0.80;;
16743;SDS011;71724;-33.900;151.182;2023-08-20T00:11:29;12.45;;;0.80;;
16743;SDS011;71724;-33.900;151.182;2023-08-20T00:13:59;1.58;;;0.45;;
16743;SDS011;71724;-33.900;151.182;2023-08-20T00:16:27;36.97;;;2.08;;
16743;SDS011;71724;-33.900;151.182;2023-08-20T00:18:54;34.00;;;2.08;;
16743;SDS011;71724;-33.900;151.182;2023-08-20T00:21:22;20.45;;;0.93;;
16743;SDS011;71724;-33.900;151.182;2023-08-20T00:23:50;1.88;;;0.50;;
16743;SDS011;71724;-33.900;151.182;2023-08-20T00:26:17;0.30;;;0.30;;
16743;SDS011;71724;-33.900;151.182;2023-08-20T00:28:45;129.35;;;6.75;;
16743;SDS011;71724;-33.900;151.182;2023-08-20T00:31:12;1.33;;;0.40;;
16743;SDS011;71724;-33.900;151.182;2023-08-20T00:33:39;19.17;;;1.23;;
16743;SDS011;71724;-33.900;151.182;2023-08-20T00:36:07;1.48;;;0.40;;
16743;SDS011;71724;-33.900;151.182;2023-08-20T00:38:34;18.63;;;1.10;;
16743;SDS011;71724;-33.900;151.182;2023-08-20T00:41:02;12.23;;;0.90;;
16743;SDS011;71724;-33.900;151.182;2023-08-20T00:43:30;2.45;;;0.65;;
16743;SDS011;71724;-33.900;151.182;2023-08-20T00:45:58;21.90;;;1.38;;
16743;SDS011;71724;-33.900;151.182;2023-08-20T00:48:26;6.32;;;0.63;;
16743;SDS011;71724;-33.900;151.182;2023-08-20T00:50:53;0.40;;;0.30;;
16743;SDS011;71724;-33.900;151.182;2023-08-20T00:53:20;36.05;;;2.17;;
16743;SDS011;71724;-33.900;151.182;2023-08-20T00:55:48;6.30;;;0.60;;
16743;SDS011;71724;-33.900;151.182;2023-08-20T00:58:16;0.30;;;0.30;;
16743;SDS011;71724;-33.900;151.182;2023-08-20T01:00:43;6.93;;;0.95;;
16743;SDS011;71724;-33.900;151.182;2023-08-20T01:03:10;3.95;;;0.50;;
16743;SDS011;71724;-33.900;151.182;2023-08-20T01:05:39;0.30;;;0.30;;
16743;SDS011;71724;-33.900;151.182;2023-08-20T01:11:10;3.75;;;0.50;;
16743;SDS011;71724;-33.900;151.182;2023-08-20T01:13:43;0.38;;;0.38;;
16743;SDS011;71724;-33.900;151.182;2023-08-20T01:16:11;7.85;;;0.60;;
16743;SDS011;71724;-33.900;151.182;2023-08-20T01:18:40;2.25;;;0.65;;
16743;SDS011;71724;-33.900;151.182;2023-08-20T01:21:15;0.50;;;0.50;;
16743;SDS011;71724;-33.900;151.182;2023-08-20T01:29:43;0.88;;;0.38;;
16743;SDS011;71724;-33.900;151.182;2023-08-20T01:32:11;27.15;;;1.42;;
16743;SDS011;71724;-33.900;151.182;2023-08-20T01:34:39;2.67;;;0.50;;
16743;SDS011;71724;-33.900;151.182;2023-08-20T01:37:08;4.13;;;0.50;;
16743;SDS011;71724;-33.900;151.182;2023-08-20T01:39:35;180.45;;;8.43;;
16743;SDS011;71724;-33.900;151.182;2023-08-20T01:42:05;2.75;;;0.70;;
16743;SDS011;71724;-33.900;151.182;2023-08-20T01:44:33;15.60;;;1.27;;
16743;SDS011;71724;-33.900;151.182;2023-08-20T01:47:00;3.08;;;0.63;;
16743;SDS011;71724;-33.900;151.182;2023-08-20T01:49:28;0.35;;;0.35;;
16743;SDS011;71724;-33.900;151.182;2023-08-20T01:51:55;1.80;;;0.60;;
16743;SDS011;71724;-33.900;151.182;2023-08-20T01:54:23;0.60;;;0.40;;
16743;SDS011;71724;-33.900;151.182;2023-08-20T01:56:50;1.30;;;1.00;;
16743;SDS011;71724;-33.900;151.182;2023-08-20T01:59:17;0.80;;;0.60;;
16743;SDS011;71724;-33.900;151.182;2023-08-20T02:01:46;4.10;;;0.60;;
16743;SDS011;71724;-33.900;151.182;2023-08-20T02:04:13;0.57;;;0.50;;
16743;SDS011;71724;-33.900;151.182;2023-08-20T02:06:40;0.55;;;0.50;;
16743;SDS011;71724;-33.900;151.182;2023-08-20T02:09:08;1.48;;;0.50;;
16743;SDS011;71724;-33.900;151.182;2023-08-20T02:11:35;0.50;;;0.50;;
16743;SDS011;71724;-33.900;151.182;2023-08-20T02:14:03;2.60;;;0.50;;
16743;SDS011;71724;-33.900;151.182;2023-08-20T02:16:30;0.55;;;0.40;;
16743;SDS011;71724;-33.900;151.182;2023-08-20T02:18:59;0.65;;;0.40;;
16743;SDS011;71724;-33.900;151.182;2023-08-20T02:21:28;0.90;;;0.70;;
16743;SDS011;71724;-33.900;151.182;2023-08-20T02:23:56;0.85;;;0.40;;
16743;SDS011;71724;-33.900;151.182;2023-08-20T02:26:23;0.60;;;0.60;;
16743;SDS011;71724;-33.900;151.182;2023-08-20T02:28:51;0.65;;;0.50;;
16743;SDS011;71724;-33.900;151.182;2023-08-20T02:31:19;1.05;;;0.60;;
16743;SDS011;71724;-33.900;151.182;2023-08-20T02:33:46;2.63;;;0.70;;
16743;SDS011;71724;-33.900;151.182;2023-08-20T02:36:13;0.50;;;0.50;;
16743;SDS011;71724;-33.900;151.182;2023-08-20T02:38:44;0.98;;;0.40;;
16743;SDS011;71724;-33.900;151.182;2023-08-20T02:41:12;0.60;;;0.60;;
16743;SDS011;71724;-33.900;151.182;2023-08-20T02:43:39;0.40;;;0.40;;
16743;SDS011;71724;-33.900;151.182;2023-08-20T02:46:06;0.50;;;0.50;;
16743;SDS011;71724;-33.900;151.182;2023-08-20T02:48:34;0.73;;;0.50;;
16743;SDS011;71724;-33.900;151.182;2023-08-20T02:51:01;5.65;;;0.60;;
16743;SDS011;71724;-33.900;151.182;2023-08-20T02:53:28;1.38;;;0.63;;
16743;SDS011;71724;-33.900;151.182;2023-08-20T02:55:56;0.55;;;0.40;;
16743;SDS011;71724;-33.900;151.182;2023-08-20T02:58:23;3.50;;;0.60;;
16743;SDS011;71724;-33.900;151.182;2023-08-20T03:00:51;0.50;;;0.50;;
16743;SDS011;71724;-33.900;151.182;2023-08-20T03:03:18;0.68;;;0.60;;
16743;SDS011;71724;-33.900;151.182;2023-08-20T03:05:46;0.70;;;0.60;;
16743;SDS011;71724;-33.900;151.182;2023-08-20T03:08:16;0.35;;;0.35;;
16743;SDS011;71724;-33.900;151.182;2023-08-20T03:10:44;0.45;;;0.40;;
16743;SDS011;71724;-33.900;151.182;2023-08-20T03:13:11;0.40;;;0.40;;
16743;SDS011;71724;-33.900;151.182;2023-08-20T03:15:39;0.50;;;0.50;;
16743;SDS011;71724;-33.900;151.182;2023-08-20T03:18:07;1.05;;;0.68;;
16743;SDS011;71724;-33.900;151.182;2023-08-20T03:20:34;0.70;;;0.70;;
16743;SDS011;71724;-33.900;151.182;2023-08-20T03:23:02;0.60;;;0.60;;
16743;SDS011;71724;-33.900;151.182;2023-08-20T03:25:30;0.90;;;0.43;;
16743;SDS011;71724;-33.900;151.182;2023-08-20T03:28:00;0.60;;;0.60;;
16743;SDS011;71724;-33.900;151.182;2023-08-20T03:30:28;0.70;;;0.68;;
16743;SDS011;71724;-33.900;151.182;2023-08-20T03:32:55;0.50;;;0.50;;
16743;SDS011;71724;-33.900;151.182;2023-08-20T03:35:22;0.60;;;0.50;;
16743;SDS011;71724;-33.900;151.182;2023-08-20T03:37:50;4.03;;;0.60;;
16743;SDS011;71724;-33.900;151.182;2023-08-20T03:40:17;0.88;;;0.60;;
16743;SDS011;71724;-33.900;151.182;2023-08-20T03:42:46;1.60;;;0.60;;
16743;SDS011;71724;-33.900;151.182;2023-08-20T03:45:13;0.82;;;0.45;;
16743;SDS011;71724;-33.900;151.182;2023-08-20T03:47:40;0.50;;;0.50;;
16743;SDS011;71724;-33.900;151.182;2023-08-20T03:50:12;0.50;;;0.50;;
16743;SDS011;71724;-33.900;151.182;2023-08-20T03:52:40;0.80;;;0.80;;
16743;SDS011;71724;-33.900;151.182;2023-08-20T03:55:07;1.45;;;0.90;;
16743;SDS011;71724;-33.900;151.182;2023-08-20T03:57:35;0.85;;;0.60;;
16743;SDS011;71724;-33.900;151.182;2023-08-20T04:00:02;0.60;;;0.60;;
16743;SDS011;71724;-33.900;151.182;2023-08-20T04:02:29;1.92;;;1.05;;
16743;SDS011;71724;-33.900;151.182;2023-08-20T04:04:57;1.50;;;0.88;;
16743;SDS011;71724;-33.900;151.182;2023-08-20T04:07:25;0.60;;;0.57;;
16743;SDS011;71724;-33.900;151.182;2023-08-20T04:09:52;0.57;;;0.57;;
16743;SDS011;71724;-33.900;151.182;2023-08-20T04:12:19;0.63;;;0.60;;
16743;SDS011;71724;-33.900;151.182;2023-08-20T04:14:47;1.38;;;0.57;;
16743;SDS011;71724;-33.900;151.182;2023-08-20T04:17:15;0.50;;;0.50;;
16743;SDS011;71724;-33.900;151.182;2023-08-20T04:19:43;0.50;;;0.50;;
16743;SDS011;71724;-33.900;151.182;2023-08-20T04:22:10;0.43;;;0.43;;
16743;SDS011;71724;-33.900;151.182;2023-08-20T04:24:38;0.63;;;0.47;;
16743;SDS011;71724;-33.900;151.182;2023-08-20T04:27:06;0.40;;;0.40;;
16743;SDS011;71724;-33.900;151.182;2023-08-20T04:29:33;0.73;;;0.40;;
16743;SDS011;71724;-33.900;151.182;2023-08-20T04:32:00;0.40;;;0.40;;
16743;SDS011;71724;-33.900;151.182;2023-08-20T04:34:28;3.45;;;0.60;;
16743;SDS011;71724;-33.900;151.182;2023-08-20T04:36:55;0.50;;;0.50;;
16743;SDS011;71724;-33.900;151.182;2023-08-20T04:39:22;2.97;;;0.55;;
16743;SDS011;71724;-33.900;151.182;2023-08-20T04:41:50;0.70;;;0.60;;
16743;SDS011;71724;-33.900;151.182;2023-08-20T04:44:17;0.52;;;0.43;;
16743;SDS011;71724;-33.900;151.182;2023-08-20T04:46:44;4.10;;;0.70;;
16743;SDS011;71724;-33.900;151.182;2023-08-20T04:49:12;0.38;;;0.38;;
16743;SDS011;71724;-33.900;151.182;2023-08-20T04:51:39;0.55;;;0.50;;
16743;SDS011;71724;-33.900;151.182;2023-08-20T04:54:07;1.80;;;0.45;;
16743;SDS011;71724;-33.900;151.182;2023-08-20T04:56:34;0.60;;;0.50;;
16743;SDS011;71724;-33.900;151.182;2023-08-20T04:59:01;4.65;;;0.60;;
16743;SDS011;71724;-33.900;151.182;2023-08-20T05:01:29;1.20;;;0.60;;
16743;SDS011;71724;-33.900;151.182;2023-08-20T05:03:56;0.40;;;0.40;;
16743;SDS011;71724;-33.900;151.182;2023-08-20T05:06:24;1.33;;;0.55;;
16743;SDS011;71724;-33.900;151.182;2023-08-20T05:08:51;1.60;;;0.80;;
16743;SDS011;71724;-33.900;151.182;2023-08-20T05:11:18;0.75;;;0.50;;
16743;SDS011;71724;-33.900;151.182;2023-08-20T05:13:47;0.80;;;0.60;;
16743;SDS011;71724;-33.900;151.182;2023-08-20T05:16:15;0.50;;;0.50;;
16743;SDS011;71724;-33.900;151.182;2023-08-20T05:18:43;0.50;;;0.50;;
16743;SDS011;71724;-33.900;151.182;2023-08-20T05:21:10;3.65;;;0.60;;
16743;SDS011;71724;-33.900;151.182;2023-08-20T05:23:39;0.52;;;0.52;;
16743;SDS011;71724;-33.900;151.182;2023-08-20T05:26:07;2.53;;;0.60;;
16743;SDS011;71724;-33.900;151.182;2023-08-20T05:28:34;0.98;;;0.43;;
16743;SDS011;71724;-33.900;151.182;2023-08-20T05:31:01;0.70;;;0.50;;
16743;SDS011;71724;-33.900;151.182;2023-08-20T05:33:29;1.83;;;0.60;;
16743;SDS011;71724;-33.900;151.182;2023-08-20T05:35:57;0.60;;;0.60;;
16743;SDS011;71724;-33.900;151.182;2023-08-20T05:38:26;0.73;;;0.43;;
16743;SDS011;71724;-33.900;151.182;2023-08-20T05:40:53;1.45;;;0.68;;
16743;SDS011;71724;-33.900;151.182;2023-08-20T05:43:20;0.95;;;0.50;;
16743;SDS011;71724;-33.900;151.182;2023-08-20T05:45:48;0.60;;;0.60;;
16743;SDS011;71724;-33.900;151.182;2023-08-20T05:48:16;1.63;;;0.75;;
16743;SDS011;71724;-33.900;151.182;2023-08-20T05:50:44;0.40;;;0.40;;
16743;SDS011;71724;-33.900;151.182;2023-08-20T05:53:11;1.17;;;0.47;;
16743;SDS011;71724;-33.900;151.182;2023-08-20T05:55:39;1.00;;;0.50;;
16743;SDS011;71724;-33.900;151.182;2023-08-20T05:58:06;0.50;;;0.45;;
16743;SDS011;71724;-33.900;151.182;2023-08-20T06:00:33;0.40;;;0.40;;
16743;SDS011;71724;-33.900;151.182;2023-08-20T06:03:01;0.50;;;0.40;;
16743;SDS011;71724;-33.900;151.182;2023-08-20T06:05:28;1.88;;;0.50;;
16743;SDS011;71724;-33.900;151.182;2023-08-20T06:07:55;1.45;;;0.70;;
16743;SDS011;71724;-33.900;151.182;2023-08-20T06:10:23;0.63;;;0.40;;
16743;SDS011;71724;-33.900;151.182;2023-08-20T06:12:50;1.48;;;0.50;;
16743;SDS011;71724;-33.900;151.182;2023-08-20T06:15:18;0.77;;;0.43;;
16743;SDS011;71724;-33.900;151.182;2023-08-20T06:17:46;1.20;;;0.50;;
16743;SDS011;71724;-33.900;151.182;2023-08-20T06:20:13;2.13;;;0.60;;
16743;SDS011;71724;-33.900;151.182;2023-08-20T06:22:40;0.60;;;0.45;;
16743;SDS011;71724;-33.900;151.182;2023-08-20T06:25:08;1.02;;;0.50;;
16743;SDS011;71724;-33.900;151.182;2023-08-20T06:27:35;0.52;;;0.40;;
16743;SDS011;71724;-33.900;151.182;2023-08-20T06:30:02;1.27;;;0.52;;
16743;SDS011;71724;-33.900;151.182;2023-08-20T06:32:31;1.27;;;0.45;;
16743;SDS011;71724;-33.900;151.182;2023-08-20T06:35:00;1.20;;;0.60;;
16743;SDS011;71724;-33.900;151.182;2023-08-20T06:37:28;1.40;;;0.60;;
16743;SDS011;71724;-33.900;151.182;2023-08-20T06:39:55;0.95;;;0.43;;
16743;SDS011;71724;-33.900;151.182;2023-08-20T06:42:23;1.30;;;0.50;;
16743;SDS011;71724;-33.900;151.182;2023-08-20T06:44:50;1.08;;;0.40;;
16743;SDS011;71724;-33.900;151.182;2023-08-20T06:47:17;0.40;;;0.40;;
16743;SDS011;71724;-33.900;151.182;2023-08-20T06:49:45;1.58;;;0.55;;
16743;SDS011;71724;-33.900;151.182;2023-08-20T06:52:12;0.68;;;0.40;;
16743;SDS011;71724;-33.900;151.182;2023-08-20T06:54:39;0.73;;;0.50;;
16743;SDS011;71724;-33.900;151.182;2023-08-20T06:57:07;2.13;;;0.47;;
16743;SDS011;71724;-33.900;151.182;2023-08-20T06:59:34;1.02;;;0.50;;
16743;SDS011;71724;-33.900;151.182;2023-08-20T07:02:02;1.48;;;0.50;;
16743;SDS011;71724;-33.900;151.182;2023-08-20T07:04:29;1.05;;;0.60;;
16743;SDS011;71724;-33.900;151.182;2023-08-20T07:06:59;0.95;;;0.50;;
16743;SDS011;71724;-33.900;151.182;2023-08-20T07:09:26;2.20;;;0.70;;
16743;SDS011;71724;-33.900;151.182;2023-08-20T07:11:53;5.57;;;1.05;;
16743;SDS011;71724;-33.900;151.182;2023-08-20T07:14:21;2.47;;;0.93;;
16743;SDS011;71724;-33.900;151.182;2023-08-20T07:16:48;1.58;;;0.52;;
16743;SDS011;71724;-33.900;151.182;2023-08-20T07:19:15;0.70;;;0.70;;
16743;SDS011;71724;-33.900;151.182;2023-08-20T07:21:43;5.40;;;0.80;;
16743;SDS011;71724;-33.900;151.182;2023-08-20T07:24:13;0.85;;;0.60;;
16743;SDS011;71724;-33.900;151.182;2023-08-20T07:26:40;2.08;;;0.70;;
16743;SDS011;71724;-33.900;151.182;2023-08-20T07:29:08;1.60;;;0.68;;
16743;SDS011;71724;-33.900;151.182;2023-08-20T07:31:35;1.35;;;0.70;;
16743;SDS011;71724;-33.900;151.182;2023-08-20T07:34:02;0.50;;;0.50;;
16743;SDS011;71724;-33.900;151.182;2023-08-20T07:36:30;2.03;;;0.70;;
16743;SDS011;71724;-33.900;151.182;2023-08-20T07:38:59;2.22;;;0.90;;
16743;SDS011;71724;-33.900;151.182;2023-08-20T07:41:26;1.83;;;0.85;;
16743;SDS011;71724;-33.900;151.182;2023-08-20T07:43:54;1.92;;;0.90;;
16743;SDS011;71724;-33.900;151.182;2023-08-20T07:46:21;1.38;;;0.70;;
16743;SDS011;71724;-33.900;151.182;2023-08-20T07:48:48;0.93;;;0.60;;
16743;SDS011;71724;-33.900;151.182;2023-08-20T07:51:16;0.93;;;0.70;;
16743;SDS011;71724;-33.900;151.182;2023-08-20T07:53:44;1.23;;;0.70;;
16743;SDS011;71724;-33.900;151.182;2023-08-20T07:56:11;2.80;;;0.70;;
16743;SDS011;71724;-33.900;151.182;2023-08-20T07:58:38;2.67;;;0.88;;
16743;SDS011;71724;-33.900;151.182;2023-08-20T08:01:06;1.13;;;0.80;;
16743;SDS011;71724;-33.900;151.182;2023-08-20T08:03:34;1.27;;;0.60;;
16743;SDS011;71724;-33.900;151.182;2023-08-20T08:06:01;1.13;;;0.73;;
16743;SDS011;71724;-33.900;151.182;2023-08-20T08:08:28;2.10;;;0.93;;
16743;SDS011;71724;-33.900;151.182;2023-08-20T08:10:56;1.80;;;0.70;;
16743;SDS011;71724;-33.900;151.182;2023-08-20T08:13:23;2.22;;;1.00;;
16743;SDS011;71724;-33.900;151.182;2023-08-20T08:15:51;2.25;;;1.00;;
16743;SDS011;71724;-33.900;151.182;2023-08-20T08:18:18;2.35;;;1.23;;
16743;SDS011;71724;-33.900;151.182;2023-08-20T08:20:46;1.45;;;0.95;;
16743;SDS011;71724;-33.900;151.182;2023-08-20T08:23:13;1.90;;;1.00;;
16743;SDS011;71724;-33.900;151.182;2023-08-20T08:25:41;2.33;;;1.27;;
16743;SDS011;71724;-33.900;151.182;2023-08-20T08:28:08;1.75;;;1.10;;
16743;SDS011;71724;-33.900;151.182;2023-08-20T08:30:36;3.03;;;1.40;;
16743;SDS011;71724;-33.900;151.182;2023-08-20T08:33:04;1.52;;;1.00;;
16743;SDS011;71724;-33.900;151.182;2023-08-20T08:35:31;2.83;;;1.55;;
16743;SDS011;71724;-33.900;151.182;2023-08-20T08:37:59;2.75;;;1.80;;
16743;SDS011;71724;-33.900;151.182;2023-08-20T08:40:27;5.07;;;1.48;;
16743;SDS011;71724;-33.900;151.182;2023-08-20T08:42:56;6.00;;;1.30;;
16743;SDS011;71724;-33.900;151.182;2023-08-20T08:45:26;3.10;;;1.05;;
16743;SDS011;71724;-33.900;151.182;2023-08-20T08:47:54;2.50;;;1.20;;
16743;SDS011;71724;-33.900;151.182;2023-08-20T08:50:22;1.67;;;1.00;;
16743;SDS011;71724;-33.900;151.182;2023-08-20T08:52:50;3.42;;;1.20;;
16743;SDS011;71724;-33.900;151.182;2023-08-20T08:55:19;2.38;;;1.30;;
16743;SDS011;71724;-33.900;151.182;2023-08-20T08:57:50;5.13;;;1.40;;
16743;SDS011;71724;-33.900;151.182;2023-08-20T09:00:18;3.03;;;1.30;;
16743;SDS011;71724;-33.900;151.182;2023-08-20T09:02:47;3.50;;;1.27;;
16743;SDS011;71724;-33.900;151.182;2023-08-20T09:05:15;2.72;;;1.10;;
16743;SDS011;71724;-33.900;151.182;2023-08-20T09:07:44;2.80;;;1.20;;
16743;SDS011;71724;-33.900;151.182;2023-08-20T09:10:11;3.03;;;1.02;;
16743;SDS011;71724;-33.900;151.182;2023-08-20T09:12:43;1.98;;;1.23;;
16743;SDS011;71724;-33.900;151.182;2023-08-20T09:15:13;5.43;;;1.65;;
16743;SDS011;71724;-33.900;151.182;2023-08-20T09:17:41;3.55;;;1.20;;
16743;SDS011;71724;-33.900;151.182;2023-08-20T09:20:08;3.53;;;1.20;;
16743;SDS011;71724;-33.900;151.182;2023-08-20T09:22:36;2.45;;;0.98;;
16743;SDS011;71724;-33.900;151.182;2023-08-20T09:25:04;2.70;;;1.30;;
16743;SDS011;71724;-33.900;151.182;2023-08-20T09:27:38;2.42;;;1.30;;
16743;SDS011;71724;-33.900;151.182;2023-08-20T09:30:06;3.35;;;1.27;;
16743;SDS011;71724;-33.900;151.182;2023-08-20T09:32:35;3.38;;;1.30;;
16743;SDS011;71724;-33.900;151.182;2023-08-20T09:35:03;2.85;;;1.65;;
16743;SDS011;71724;-33.900;151.182;2023-08-20T09:37:30;5.07;;;2.30;;
16743;SDS011;71724;-33.900;151.182;2023-08-20T09:39:59;4.05;;;1.80;;
16743;SDS011;71724;-33.900;151.182;2023-08-20T09:42:28;5.55;;;2.58;;
16743;SDS011;71724;-33.900;151.182;2023-08-20T09:44:58;6.25;;;2.10;;
16743;SDS011;71724;-33.900;151.182;2023-08-20T09:47:30;2.95;;;1.67;;
16743;SDS011;71724;-33.900;151.182;2023-08-20T09:50:02;4.32;;;2.08;;
16743;SDS011;71724;-33.900;151.182;2023-08-20T09:52:38;4.43;;;1.88;;
16743;SDS011;71724;-33.900;151.182;2023-08-20T09:55:16;4.82;;;2.42;;
16743;SDS011;71724;-33.900;151.182;2023-08-20T09:57:48;5.45;;;2.10;;
16743;SDS011;71724;-33.900;151.182;2023-08-20T10:00:15;5.55;;;2.25;;
16743;SDS011;71724;-33.900;151.182;2023-08-20T10:02:43;7.80;;;2.35;;
16743;SDS011;71724;-33.900;151.182;2023-08-20T10:05:11;4.63;;;1.80;;
16743;SDS011;71724;-33.900;151.182;2023-08-20T10:07:40;3.03;;;1.60;;
16743;SDS011;71724;-33.900;151.182;2023-08-20T10:10:09;4.03;;;2.28;;
16743;SDS011;71724;-33.900;151.182;2023-08-20T10:12:40;4.93;;;2.42;;
16743;SDS011;71724;-33.900;151.182;2023-08-20T10:15:09;9.27;;;2.95;;
16743;SDS011;71724;-33.900;151.182;2023-08-20T10:17:39;4.47;;;2.60;;
16743;SDS011;71724;-33.900;151.182;2023-08-20T10:20:08;4.20;;;2.45;;
16743;SDS011;71724;-33.900;151.182;2023-08-20T10:22:37;7.18;;;2.10;;
16743;SDS011;71724;-33.900;151.182;2023-08-20T10:25:11;5.03;;;1.77;;
16743;SDS011;71724;-33.900;151.182;2023-08-20T10:27:48;4.20;;;1.90;;
16743;SDS011;71724;-33.900;151.182;2023-08-20T10:30:17;3.13;;;1.73;;
16743;SDS011;71724;-33.900;151.182;2023-08-20T10:35:22;5.75;;;1.83;;
16743;SDS011;71724;-33.900;151.182;2023-08-20T10:46:13;2.85;;;2.03;;
16743;SDS011;71724;-33.900;151.182;2023-08-20T10:48:52;5.38;;;1.95;;
16743;SDS011;71724;-33.900;151.182;2023-08-20T10:51:31;3.28;;;2.55;;
16743;SDS011;71724;-33.900;151.182;2023-08-20T10:54:07;5.85;;;2.72;;
16743;SDS011;71724;-33.900;151.182;2023-08-20T10:56:39;4.32;;;2.70;;
16743;SDS011;71724;-33.900;151.182;2023-08-20T10:59:08;4.57;;;2.38;;
16743;SDS011;71724;-33.900;151.182;2023-08-20T11:01:45;6.55;;;2.60;;
16743;SDS011;71724;-33.900;151.182;2023-08-20T11:04:20;6.45;;;2.28;;
16743;SDS011;71724;-33.900;151.182;2023-08-20T11:06:57;7.30;;;2.63;;
16743;SDS011;71724;-33.900;151.182;2023-08-20T11:09:28;4.35;;;2.50;;
16743;SDS011;71724;-33.900;151.182;2023-08-20T11:11:57;4.45;;;2.38;;
16743;SDS011;71724;-33.900;151.182;2023-08-20T11:14:24;6.22;;;2.67;;
16743;SDS011;71724;-33.900;151.182;2023-08-20T11:16:52;4.82;;;2.85;;
16743;SDS011;71724;-33.900;151.182;2023-08-20T11:19:22;5.97;;;3.10;;
16743;SDS011;71724;-33.900;151.182;2023-08-20T11:21:50;4.40;;;2.38;;
16743;SDS011;71724;-33.900;151.182;2023-08-20T11:24:18;5.38;;;2.80;;
16743;SDS011;71724;-33.900;151.182;2023-08-20T11:26:46;5.82;;;2.95;;
16743;SDS011;71724;-33.900;151.182;2023-08-20T11:29:14;6.00;;;2.78;;
16743;SDS011;71724;-33.900;151.182;2023-08-20T11:31:50;6.82;;;3.10;;
16743;SDS011;71724;-33.900;151.182;2023-08-20T11:34:18;6.93;;;2.85;;
16743;SDS011;71724;-33.900;151.182;2023-08-20T11:36:46;5.20;;;3.05;;
16743;SDS011;71724;-33.900;151.182;2023-08-20T11:39:13;4.78;;;3.05;;
16743;SDS011;71724;-33.900;151.182;2023-08-20T11:41:41;7.10;;;2.92;;
16743;SDS011;71724;-33.900;151.182;2023-08-20T11:44:10;5.15;;;2.63;;
16743;SDS011;71724;-33.900;151.182;2023-08-20T11:46:46;4.50;;;2.80;;
16743;SDS011;71724;-33.900;151.182;2023-08-20T11:49:13;4.93;;;2.72;;
16743;SDS011;71724;-33.900;151.182;2023-08-20T11:51:42;4.88;;;2.90;;
16743;SDS011;71724;-33.900;151.182;2023-08-20T11:54:18;4.32;;;2.70;;
16743;SDS011;71724;-33.900;151.182;2023-08-20T11:56:50;5.43;;;3.10;;
16743;SDS011;71724;-33.900;151.182;2023-08-20T11:59:18;5.68;;;2.60;;
16743;SDS011;71724;-33.900;151.182;2023-08-20T12:01:56;4.93;;;2.83;;
16743;SDS011;71724;-33.900;151.182;2023-08-20T12:04:31;5.70;;;2.80;;
16743;SDS011;71724;-33.900;151.182;2023-08-20T12:07:08;5.55;;;2.90;;
16743;SDS011;71724;-33.900;151.182;2023-08-20T12:09:36;3.75;;;2.35;;
16743;SDS011;71724;-33.900;151.182;2023-08-20T12:12:05;5.30;;;2.78;;
16743;SDS011;71724;-33.900;151.182;2023-08-20T12:14:33;4.40;;;2.47;;
16743;SDS011;71724;-33.900;151.182;2023-08-20T12:17:03;6.40;;;2.80;;
16743;SDS011;71724;-33.900;151.182;2023-08-20T12:19:31;6.70;;;3.65;;
16743;SDS011;71724;-33.900;151.182;2023-08-20T12:21:58;5.32;;;3.13;;
16743;SDS011;71724;-33.900;151.182;2023-08-20T12:24:25;6.05;;;3.00;;
16743;SDS011;71724;-33.900;151.182;2023-08-20T12:26:53;5.40;;;3.05;;
16743;SDS011;71724;-33.900;151.182;2023-08-20T12:29:20;6.15;;;2.80;;
16743;SDS011;71724;-33.900;151.182;2023-08-20T12:31:48;4.18;;;2.47;;
16743;SDS011;71724;-33.900;151.182;2023-08-20T12:34:15;5.55;;;2.25;;
16743;SDS011;71724;-33.900;151.182;2023-08-20T12:36:43;3.45;;;2.28;;
16743;SDS011;71724;-33.900;151.182;2023-08-20T12:39:10;4.22;;;2.60;;
16743;SDS011;71724;-33.900;151.182;2023-08-20T12:41:39;5.20;;;2.60;;
16743;SDS011;71724;-33.900;151.182;2023-08-20T12:44:07;5.88;;;2.60;;
16743;SDS011;71724;-33.900;151.182;2023-08-20T12:46:34;6.43;;;2.50;;
16743;SDS011;71724;-33.900;151.182;2023-08-20T12:49:01;3.90;;;2.28;;
16743;SDS011;71724;-33.900;151.182;2023-08-20T12:51:29;5.10;;;2.15;;
16743;SDS011;71724;-33.900;151.182;2023-08-20T12:53:56;3.60;;;2.20;;
16743;SDS011;71724;-33.900;151.182;2023-08-20T12:56:25;4.22;;;2.50;;
16743;SDS011;71724;-33.900;151.182;2023-08-20T12:58:53;7.60;;;2.55;;
16743;SDS011;71724;-33.900;151.182;2023-08-20T13:01:20;4.38;;;2.35;;
16743;SDS011;71724;-33.900;151.182;2023-08-20T13:03:47;4.32;;;2.42;;
16743;SDS011;71724;-33.900;151.182;2023-08-20T13:06:15;6.03;;;2.53;;
16743;SDS011;71724;-33.900;151.182;2023-08-20T13:08:43;7.32;;;3.08;;
16743;SDS011;71724;-33.900;151.182;2023-08-20T13:11:11;5.68;;;2.80;;
16743;SDS011;71724;-33.900;151.182;2023-08-20T13:13:43;5.13;;;3.33;;
16743;SDS011;71724;-33.900;151.182;2023-08-20T13:16:10;5.95;;;2.92;;
16743;SDS011;71724;-33.900;151.182;2023-08-20T13:18:38;4.50;;;2.95;;
16743;SDS011;71724;-33.900;151.182;2023-08-20T13:21:05;5.57;;;2.63;;
16743;SDS011;71724;-33.900;151.182;2023-08-20T13:23:34;3.90;;;2.53;;
16743;SDS011;71724;-33.900;151.182;2023-08-20T13:26:04;7.20;;;2.85;;
16743;SDS011;71724;-33.900;151.182;2023-08-20T13:28:32;5.22;;;2.80;;
16743;SDS011;71724;-33.900;151.182;2023-08-20T13:30:59;5.57;;;2.88;;
16743;SDS011;71724;-33.900;151.182;2023-08-20T13:33:27;6.57;;;2.72;;
16743;SDS011;71724;-33.900;151.182;2023-08-20T13:35:54;8.48;;;2.88;;
16743;SDS011;71724;-33.900;151.182;2023-08-20T13:38:23;7.10;;;2.75;;
16743;SDS011;71724;-33.900;151.182;2023-08-20T13:40:51;7.00;;;3.38;;
16743;SDS011;71724;-33.900;151.182;2023-08-20T13:43:19;7.45;;;3.00;;
16743;SDS011;71724;-33.900;151.182;2023-08-20T13:45:46;5.22;;;3.05;;
16743;SDS011;71724;-33.900;151.182;2023-08-20T13:48:14;5.63;;;2.78;;
16743;SDS011;71724;-33.900;151.182;2023-08-20T13:50:41;4.32;;;2.88;;
16743;SDS011;71724;-33.900;151.182;2023-08-20T13:53:08;3.97;;;2.60;;
16743;SDS011;71724;-33.900;151.182;2023-08-20T13:55:36;6.97;;;3.05;;
16743;SDS011;71724;-33.900;151.182;2023-08-20T13:58:03;5.20;;;2.58;;
16743;SDS011;71724;-33.900;151.182;2023-08-20T14:00:30;3.78;;;2.38;;
16743;SDS011;71724;-33.900;151.182;2023-08-20T14:02:58;6.15;;;3.00;;
16743;SDS011;71724;-33.900;151.182;2023-08-20T14:05:25;4.13;;;2.17;;
16743;SDS011;71724;-33.900;151.182;2023-08-20T14:07:54;4.70;;;2.50;;
16743;SDS011;71724;-33.900;151.182;2023-08-20T14:10:22;8.05;;;2.00;;
16743;SDS011;71724;-33.900;151.182;2023-08-20T14:12:49;4.07;;;2.10;;
16743;SDS011;71724;-33.900;151.182;2023-08-20T14:15:17;4.25;;;2.10;;
16743;SDS011;71724;-33.900;151.182;2023-08-20T14:17:44;4.57;;;2.70;;
16743;SDS011;71724;-33.900;151.182;2023-08-20T14:20:12;5.88;;;2.65;;
16743;SDS011;71724;-33.900;151.182;2023-08-20T14:22:40;4.32;;;2.83;;
16743;SDS011;71724;-33.900;151.182;2023-08-20T14:25:08;4.20;;;2.65;;
16743;SDS011;71724;-33.900;151.182;2023-08-20T14:27:35;7.70;;;2.55;;
16743;SDS011;71724;-33.900;151.182;2023-08-20T14:30:03;5.18;;;2.42;;
16743;SDS011;71724;-33.900;151.182;2023-08-20T14:32:31;6.40;;;2.40;;
16743;SDS011;71724;-33.900;151.182;2023-08-20T14:34:59;6.40;;;2.72;;